Jadranovo, Croatia

5:02 AM CET on February 10, 2016 (GMT +0100)
Ruzic selo | | Change Station
CLOSE
Current Station
Personal Weather Station
Location: Hreljin, PRIMORJE-GORSKI KOTAR COUNTY
Elevation: 1175 ft
Nearby Weather Stations

Elev 1175 ft 45.28 °N, 14.61 °E | Updated 1 second ago

Light Rain
Light Rain
47.5 °F
Feels Like 41 °F
N
17.3
Wind Variable Wind from SSW
Gusts 17.3 mph

Today
High -- | Low -- °F
--% Chance of Precip.
Yesterday
High -- | Low -- °F
Precip. -- in
Pressure 29.27 in
Visibility 6.2 miles
Clouds Few 2000 ft
Scattered Clouds 5000 ft
Windchill 41 °F
Dew Point 46 °F
Humidity 93%
Rainfall 1.11 in
Snow Depth Not available.
7:11 AM 5:20 PM
Waxing Crescent, 3% visible
METAR LDPL 100400Z 24004KT 200V280 9999 -RA FEW020 SCT050 10/08 Q0991 RERA NOSIG
Pressure 29.27 in
Visibility 6.2 miles
Clouds Few 2000 ft
Scattered Clouds 5000 ft
Windchill 41 °F
Dew Point 46 °F
Humidity 93%
Rainfall 1.11 in
Snow Depth Not available.
7:11 AM 5:20 PM
Waxing Crescent, 3% visible
METAR LDPL 100400Z 24004KT 200V280 9999 -RA FEW020 SCT050 10/08 Q0991 RERA NOSIG

10-Day Weather Forecast

Almanac

Astronomy

Feb. 10, 2016 Rise Set
Actual Time
Civil Twilight
Nautical Twilight
Astronomical Twilight
Moon
Length of Visible Light
Length of Day
Tomorrow will be .
, % of the Moon is Illuminated

Today's Extremes

Country Highs Country Lows

Community

WunderPhotos

Upload Photos

1,891,795 photos uploaded!

WunderBlog® & News

Nearby

Air Quality

  Air Quality AQ Index Pollutant
Not available.

Snow Depth

Station Depth Elevation

Earthquake Activity

City Distance Mag. Time & Date
Minimum magnitude displayed is 2.5.

Coastal Water Temperatures

Place Temperature

Stations

Nearby Weather Stations

Station Location Temp. Windchill Dew Point Humidity Wind Precip. Elev Updated Type